Noix De Coco — FGF3649 — position and weather

sailwx.info

Track history (hours):
 
Tides and Currents Weather Stations Pressure Air Temp Water Temp Dewpoint Dewpoint Depression Visibility Wind Speed Wind Dir Waves Ship Positions

Noix De Coco

Last reported at 2017-Sep-02 14:59 UTC. Time now 2017-Sep-23 23:59 UTC.
Position N 47°33' W 002°54'.
Warning: this ship's position is 21 days out of date.

Type: Sailing vessel. MMSI: 227763690.

Date/timePositionNaut miles runAvg speedWind from/ knotsBaromVisibWave heightAir tempDewpointWater temp
2017-Sep-02 14:59N 47°33' W 002°54'2 3.6
2017-Sep-02 14:31N 47°31' W 002°55'3 6.5
2017-Sep-02 14:00N 47°28' W 002°56'3 6.8
2017-Sep-02 13:30N 47°24' W 002°57'1 1.6
2017-Sep-02 12:58N 47°24' W 002°57'0 0.0
2017-Sep-02 12:28N 47°24' W 002°57'0 0.0
2017-Sep-02 11:58N 47°24' W 002°57'0 0.0
2017-Sep-02 11:28N 47°24' W 002°57'0 0.0
2017-Sep-02 10:58N 47°24' W 002°57'0 0.3
2017-Sep-02 10:30N 47°24' W 002°57'3 5.1
2017-Sep-02 10:00N 47°26' W 002°56'3 5.4
2017-Sep-02 09:30N 47°29' W 002°56'2 4.3
2017-Sep-02 09:00N 47°31' W 002°55'2 3.3
2017-Sep-02 08:30N 47°33' W 002°54'0 0.0
2017-Sep-01 16:05N 47°33' W 002°54'0 0.0
2017-Sep-01 15:59N 47°33' W 002°54'0 0.0
2017-Sep-01 08:49N 47°33' W 002°54'0 0.0
2017-Sep-01 08:28N 47°33' W 002°54'0 0.0
2017-Sep-01 00:37N 47°33' W 002°54'0 0.0
2017-Sep-01 00:28N 47°33' W 002°54'0 0.8
2017-Sep-01 00:00N 47°32' W 002°54'2 3.9
2017-Aug-31 23:30N 47°30' W 002°54'3 6.5
2017-Aug-31 23:00N 47°27' W 002°53'3 6.7
2017-Aug-31 22:30N 47°24' W 002°51'3 6.6
2017-Aug-31 22:00N 47°21' W 002°50'57 6.0
2017-Aug-31 12:33N 46°33' W 002°05'1 4.8
2017-Aug-31 12:25N 46°32' W 002°04'2 4.9
2017-Aug-31 12:00N 46°32' W 002°02'2 4.5
2017-Aug-31 11:27N 46°31' W 001°58'2 3.5
2017-Aug-31 11:00N 46°30' W 001°56'2 3.1
2017-Aug-31 10:30N 46°29' W 001°54'2 3.7
2017-Aug-31 10:00N 46°28' W 001°52'2 4.2
2017-Aug-31 09:30N 46°27' W 001°50'6 0.2
2017-Aug-29 17:50N 46°26' W 001°41'1 2.4
2017-Aug-29 17:30N 46°26' W 001°42'2 5.0
2017-Aug-29 17:00N 46°27' W 001°45'3 5.1
2017-Aug-29 16:30N 46°28' W 001°48'2 4.9
2017-Aug-29 16:00N 46°29' W 001°51'3 5.4
2017-Aug-29 15:30N 46°31' W 001°55'8 4.2
2017-Aug-29 13:32N 46°35' W 002°05'0 4.3
2017-Aug-29 13:27N 46°36' W 002°05'2 4.1
2017-Aug-29 12:51N 46°37' W 002°08'4 5.4
2017-Aug-29 12:03N 46°39' W 002°14'0 5.0
2017-Aug-29 12:00N 46°39' W 002°14'4 0.4
2017-Aug-29 01:46N 46°42' W 002°18'0 0.0
2017-Aug-29 01:10N 46°42' W 002°18'0 0.0
2017-Aug-28 20:52N 46°42' W 002°18'0 0.0
2017-Aug-28 20:28N 46°42' W 002°18'0 0.0
2017-Aug-28 19:55N 46°42' W 002°18'13 1.0
2017-Aug-28 07:38N 46°41' W 002°00'1 2.6
2017-Aug-28 07:23N 46°41' W 001°59'1 2.9
2017-Aug-28 06:59N 46°41' W 001°58'1 1.6
2017-Aug-28 06:19N 46°42' W 001°56'0 0.0
2017-Aug-28 04:34N 46°42' W 001°56'0 0.0
2017-Aug-28 00:37N 46°42' W 001°56'0 0.0
2017-Aug-28 00:22N 46°42' W 001°56'0 0.0
2017-Aug-27 23:55N 46°42' W 001°56'0 0.0
2017-Aug-27 23:25N 46°42' W 001°56'0 0.0
2017-Aug-27 22:58N 46°42' W 001°56'0 0.0
2017-Aug-27 22:28N 46°42' W 001°56'0 0.0
2017-Aug-27 17:20N 46°42' W 001°56'1 3.3
2017-Aug-27 16:59N 46°41' W 001°58'3 5.1
2017-Aug-27 16:29N 46°41' W 002°01'2 5.2
2017-Aug-27 16:00N 46°41' W 002°05'2 4.7
2017-Aug-27 15:30N 46°41' W 002°08'2 4.4
2017-Aug-27 14:58N 46°41' W 002°12'7 0.3
2017-Aug-26 19:21N 46°44' W 002°21'0 0.0
2017-Aug-26 04:21N 46°44' W 002°21'16 1.3
2017-Aug-25 16:11N 46°42' W 001°57'7 1.7
2017-Aug-25 11:57N 46°36' W 002°04'  
Track history (hours):
 
Tides and Currents Weather Stations Pressure Air Temp Water Temp Dewpoint Dewpoint Depression Visibility Wind Speed Wind Dir Waves Ship Positions

Noix De Coco

Last reported at 2017-Sep-02 14:59 UTC. Time now 2017-Sep-23 23:59 UTC.
Position N 47°33' W 002°54'.
Warning: this ship's position is 21 days out of date.

Type: Sailing vessel. MMSI: 227763690.

Date/timePositionNaut miles runAvg speedWind from/ knotsBaromVisibWave heightAir tempDewpointWater temp
2017-Sep-02 14:59N 47°33' W 002°54'2 3.6
2017-Sep-02 14:31N 47°31' W 002°55'3 6.5
2017-Sep-02 14:00N 47°28' W 002°56'3 6.8
2017-Sep-02 13:30N 47°24' W 002°57'1 1.6
2017-Sep-02 12:58N 47°24' W 002°57'0 0.0
2017-Sep-02 12:28N 47°24' W 002°57'0 0.0
2017-Sep-02 11:58N 47°24' W 002°57'0 0.0
2017-Sep-02 11:28N 47°24' W 002°57'0 0.0
2017-Sep-02 10:58N 47°24' W 002°57'0 0.3
2017-Sep-02 10:30N 47°24' W 002°57'3 5.1
2017-Sep-02 10:00N 47°26' W 002°56'3 5.4
2017-Sep-02 09:30N 47°29' W 002°56'2 4.3
2017-Sep-02 09:00N 47°31' W 002°55'2 3.3
2017-Sep-02 08:30N 47°33' W 002°54'0 0.0
2017-Sep-01 16:05N 47°33' W 002°54'0 0.0
2017-Sep-01 15:59N 47°33' W 002°54'0 0.0
2017-Sep-01 08:49N 47°33' W 002°54'0 0.0
2017-Sep-01 08:28N 47°33' W 002°54'0 0.0
2017-Sep-01 00:37N 47°33' W 002°54'0 0.0
2017-Sep-01 00:28N 47°33' W 002°54'0 0.8
2017-Sep-01 00:00N 47°32' W 002°54'2 3.9
2017-Aug-31 23:30N 47°30' W 002°54'3 6.5
2017-Aug-31 23:00N 47°27' W 002°53'3 6.7
2017-Aug-31 22:30N 47°24' W 002°51'3 6.6
2017-Aug-31 22:00N 47°21' W 002°50'57 6.0
2017-Aug-31 12:33N 46°33' W 002°05'1 4.8
2017-Aug-31 12:25N 46°32' W 002°04'2 4.9
2017-Aug-31 12:00N 46°32' W 002°02'2 4.5
2017-Aug-31 11:27N 46°31' W 001°58'2 3.5
2017-Aug-31 11:00N 46°30' W 001°56'2 3.1
2017-Aug-31 10:30N 46°29' W 001°54'2 3.7
2017-Aug-31 10:00N 46°28' W 001°52'2 4.2
2017-Aug-31 09:30N 46°27' W 001°50'6 0.2
2017-Aug-29 17:50N 46°26' W 001°41'1 2.4
2017-Aug-29 17:30N 46°26' W 001°42'2 5.0
2017-Aug-29 17:00N 46°27' W 001°45'3 5.1
2017-Aug-29 16:30N 46°28' W 001°48'2 4.9
2017-Aug-29 16:00N 46°29' W 001°51'3 5.4
2017-Aug-29 15:30N 46°31' W 001°55'8 4.2
2017-Aug-29 13:32N 46°35' W 002°05'0 4.3
2017-Aug-29 13:27N 46°36' W 002°05'2 4.1
2017-Aug-29 12:51N 46°37' W 002°08'4 5.4
2017-Aug-29 12:03N 46°39' W 002°14'0 5.0
2017-Aug-29 12:00N 46°39' W 002°14'4 0.4
2017-Aug-29 01:46N 46°42' W 002°18'0 0.0
2017-Aug-29 01:10N 46°42' W 002°18'0 0.0
2017-Aug-28 20:52N 46°42' W 002°18'0 0.0
2017-Aug-28 20:28N 46°42' W 002°18'0 0.0
2017-Aug-28 19:55N 46°42' W 002°18'13 1.0
2017-Aug-28 07:38N 46°41' W 002°00'1 2.6
2017-Aug-28 07:23N 46°41' W 001°59'1 2.9
2017-Aug-28 06:59N 46°41' W 001°58'1 1.6
2017-Aug-28 06:19N 46°42' W 001°56'0 0.0
2017-Aug-28 04:34N 46°42' W 001°56'0 0.0
2017-Aug-28 00:37N 46°42' W 001°56'0 0.0
2017-Aug-28 00:22N 46°42' W 001°56'0 0.0
2017-Aug-27 23:55N 46°42' W 001°56'0 0.0
2017-Aug-27 23:25N 46°42' W 001°56'0 0.0
2017-Aug-27 22:58N 46°42' W 001°56'0 0.0
2017-Aug-27 22:28N 46°42' W 001°56'0 0.0
2017-Aug-27 17:20N 46°42' W 001°56'1 3.3
2017-Aug-27 16:59N 46°41' W 001°58'3 5.1
2017-Aug-27 16:29N 46°41' W 002°01'2 5.2
2017-Aug-27 16:00N 46°41' W 002°05'2 4.7
2017-Aug-27 15:30N 46°41' W 002°08'2 4.4
2017-Aug-27 14:58N 46°41' W 002°12'7 0.3
2017-Aug-26 19:21N 46°44' W 002°21'0 0.0
2017-Aug-26 04:21N 46°44' W 002°21'16 1.3
2017-Aug-25 16:11N 46°42' W 001°57'7 1.7
2017-Aug-25 11:57N 46°36' W 002°04'  

Dump ship's entire track history